createdAt,value
2023-04-04T00:01:50.176Z,100015.04
2023-04-04T00:04:50.209Z,100015.98
2023-04-04T00:07:51.173Z,100014.05
2023-04-04T00:10:56.208Z,100016.23
2023-04-04T00:13:57.189Z,100019.89
2023-04-04T00:16:57.203Z,100019.05
2023-04-04T00:19:58.267Z,100014.60
2023-04-04T00:22:58.199Z,100016.63
2023-04-04T00:26:02.209Z,100017.55
2023-04-04T00:29:02.235Z,100007.91
2023-04-04T00:32:03.309Z,100003.60
2023-04-04T00:35:06.338Z,100006.71
2023-04-04T00:38:08.232Z,100010.11
2023-04-04T00:41:08.237Z,100016.63
2023-04-04T00:44:10.266Z,100019.45
2023-04-04T00:47:10.609Z,100018.91
2023-04-04T00:50:10.287Z,100020.40
2023-04-04T00:53:11.343Z,100017.31
2023-04-04T00:56:11.284Z,100014.21
2023-04-04T00:59:11.373Z,100014.65
2023-04-04T01:02:11.298Z,100011.96
2023-04-04T01:05:12.360Z,100009.63
2023-04-04T01:08:16.283Z,100011.73
2023-04-04T01:11:17.663Z,100014.58
2023-04-04T01:14:17.319Z,100014.91
2023-04-04T01:17:19.287Z,100014.63
2023-04-04T01:20:22.330Z,100011.80
2023-04-04T01:23:23.347Z,100011.04
2023-04-04T01:26:23.331Z,100015.17
2023-04-04T01:29:26.345Z,100019.56
2023-04-04T01:32:29.339Z,100017.63
2023-04-04T01:35:48.348Z,100015.20
2023-04-04T01:38:49.396Z,100018.72
2023-04-04T01:41:50.351Z,100026.29
2023-04-04T01:44:51.467Z,100029.48
2023-04-04T01:47:56.457Z,100033.27
2023-04-04T01:50:57.337Z,100041.38
2023-04-04T01:53:57.508Z,100040.79
2023-04-04T01:56:57.465Z,100046.38
2023-04-04T01:59:59.663Z,100045.16
2023-04-04T02:03:09.467Z,100048.19
2023-04-04T02:06:09.369Z,100049.33
2023-04-04T02:09:09.391Z,100046.98
2023-04-04T02:12:09.388Z,100044.09
2023-04-04T02:15:09.532Z,100039.69
2023-04-04T02:18:12.393Z,100038.18
2023-04-04T02:21:13.435Z,100034.69
2023-04-04T02:24:13.583Z,100032.84
2023-04-04T02:27:15.438Z,100033.27
2023-04-04T02:30:15.542Z,100030.23
2023-04-04T02:33:20.477Z,100024.92
2023-04-04T02:36:22.563Z,100021.55
2023-04-04T02:39:22.464Z,100018.31
2023-04-04T02:42:22.453Z,100016.09
2023-04-04T02:45:24.466Z,100010.59
2023-04-04T02:48:29.495Z,100006.90
2023-04-04T02:51:29.460Z,100003.03
2023-04-04T02:54:29.475Z,100003.62
2023-04-04T02:57:29.508Z,100004.46
2023-04-04T03:00:29.519Z,100000.27
2023-04-04T03:03:29.803Z,100007.25
2023-04-04T03:06:30.625Z,100012.98
2023-04-04T03:09:31.484Z,100023.71
2023-04-04T03:12:33.504Z,100030.12
2023-04-04T03:15:33.522Z,100032.96
2023-04-04T03:18:34.566Z,100031.63
2023-04-04T03:21:39.507Z,100035.85
2023-04-04T03:24:40.275Z,100045.63
2023-04-04T03:27:41.517Z,100045.33
2023-04-04T03:30:46.572Z,100043.64
2023-04-04T03:33:49.508Z,100047.48
2023-04-04T03:36:49.557Z,100053.90
2023-04-04T03:39:52.591Z,100056.70
2023-04-04T03:42:53.600Z,100059.59
2023-04-04T03:45:55.640Z,100056.70
2023-04-04T03:48:56.772Z,100053.67
2023-04-04T03:52:10.587Z,100055.17
2023-04-04T03:55:27.411Z,100049.52
2023-04-04T03:58:27.744Z,100051.17
2023-04-04T04:01:27.593Z,100050.64
2023-04-04T04:04:27.623Z,100044.97
2023-04-04T04:07:29.582Z,100054.19
2023-04-04T04:10:37.688Z,100054.34
2023-04-04T04:13:38.608Z,100057.73
2023-04-04T04:16:39.690Z,100059.98
2023-04-04T04:19:43.647Z,100066.23
2023-04-04T04:22:43.633Z,100061.17
2023-04-04T04:25:44.677Z,100062.48
2023-04-04T04:28:46.644Z,100069.77
2023-04-04T04:31:53.851Z,100068.98
2023-04-04T04:34:54.784Z,100068.49
2023-04-04T04:37:57.651Z,100071.60
2023-04-04T04:40:57.677Z,100074.30
2023-04-04T04:44:10.143Z,100073.16
2023-04-04T04:47:12.107Z,100072.59
2023-04-04T04:50:15.190Z,100080.89
2023-04-04T04:53:17.946Z,100085.40
2023-04-04T04:56:22.727Z,100083.95
2023-04-04T04:59:26.726Z,100079.02
2023-04-04T05:02:28.810Z,100080.36
2023-04-04T05:05:28.787Z,100074.64
2023-04-04T05:08:30.710Z,100077.95
2023-04-04T05:11:44.708Z,100078.14
2023-04-04T05:14:46.980Z,100081.16
2023-04-04T05:17:49.259Z,100077.66
2023-04-04T05:20:51.715Z,100075.77
2023-04-04T05:23:55.168Z,100076.16
2023-04-04T05:27:01.589Z,100083.77
2023-04-04T05:30:05.911Z,100088.80
2023-04-04T05:33:14.842Z,100097.48
2023-04-04T05:36:23.881Z,100107.42
2023-04-04T05:39:28.825Z,100115.84
2023-04-04T05:42:33.784Z,100097.60
2023-04-04T05:46:05.934Z,100077.89
2023-04-04T05:53:00.761Z,100086.25
2023-04-04T05:56:00.856Z,100114.67
2023-04-04T05:59:18.970Z,100106.80
2023-04-04T06:02:25.937Z,100099.45
2023-04-04T06:06:37.272Z,100111.11
2023-04-04T06:09:48.772Z,100123.58
2023-04-04T06:12:52.924Z,100125.29
2023-04-04T06:15:56.187Z,100125.58
2023-04-04T06:18:55.853Z,100123.52
2023-04-04T06:21:58.487Z,100130.42
2023-04-04T06:25:00.912Z,100125.61
2023-04-04T06:28:01.970Z,100124.20
2023-04-04T06:31:05.031Z,100120.55
2023-04-04T06:34:26.138Z,100125.55
2023-04-04T06:37:27.877Z,100129.23
2023-04-04T06:40:50.979Z,100128.02
2023-04-04T06:43:54.973Z,100117.46
2023-04-04T06:46:59.631Z,100118.19
2023-04-04T06:50:00.118Z,100120.70
2023-04-04T06:57:05.130Z,100112.13
2023-04-04T07:00:08.368Z,100113.52
2023-04-04T07:03:10.467Z,100110.97
2023-04-04T07:06:18.174Z,100106.16
2023-04-04T07:09:28.566Z,100110.58
2023-04-04T07:12:31.689Z,100118.22
2023-04-04T07:15:34.167Z,100119.71
2023-04-04T07:18:36.079Z,100118.54
2023-04-04T07:21:36.959Z,100121.36
2023-04-04T07:24:39.082Z,100126.06
2023-04-04T07:27:41.976Z,100125.46
2023-04-04T07:30:42.266Z,100127.10
2023-04-04T07:33:50.274Z,100127.95
2023-04-04T07:37:19.618Z,100135.58
2023-04-04T07:40:24.236Z,100133.45
2023-04-04T07:43:28.209Z,100131.73
2023-04-04T07:46:33.037Z,100132.98
2023-04-04T07:49:43.186Z,100145.71
2023-04-04T07:52:44.962Z,100146.30
2023-04-04T07:56:06.874Z,100147.42
2023-04-04T07:59:10.215Z,100143.10
2023-04-04T08:02:11.218Z,100145.32
2023-04-04T08:09:31.981Z,100144.44
2023-04-04T08:12:34.456Z,100148.08
2023-04-04T08:15:39.599Z,100148.33
2023-04-04T08:18:41.040Z,100147.73
2023-04-04T08:21:41.043Z,100145.92
2023-04-04T08:24:41.120Z,100144.21
2023-04-04T08:27:42.033Z,100141.82
2023-04-04T08:31:08.349Z,100143.13
2023-04-04T08:34:09.123Z,100141.27
2023-04-04T08:37:09.047Z,100143.77
2023-04-04T08:40:09.101Z,100141.60
2023-04-04T08:43:09.233Z,100143.69
2023-04-04T08:46:18.363Z,100145.85
2023-04-04T08:49:19.813Z,100145.20
2023-04-04T08:52:29.125Z,100148.73
2023-04-04T08:55:30.081Z,100152.00
2023-04-04T08:58:30.096Z,100154.39
2023-04-04T09:01:30.209Z,100160.92
2023-04-04T09:04:31.182Z,100163.27
2023-04-04T09:07:32.075Z,100161.63
2023-04-04T09:10:33.363Z,100161.64
2023-04-04T09:13:34.107Z,100166.98
2023-04-04T09:16:34.182Z,100167.58
2023-04-04T09:19:34.749Z,100165.39
2023-04-04T09:22:36.198Z,100165.19
2023-04-04T09:25:36.137Z,100164.41
2023-04-04T09:28:37.178Z,100165.66
2023-04-04T09:31:41.212Z,100168.09
2023-04-04T09:38:24.277Z,100163.23
2023-04-04T09:41:22.192Z,100169.61
2023-04-04T09:44:32.772Z,100167.52
2023-04-04T09:47:39.802Z,100159.83
2023-04-04T09:50:40.769Z,100155.45
2023-04-04T09:53:41.248Z,100156.06
2023-04-04T09:56:41.183Z,100154.20
2023-04-04T09:59:43.412Z,100155.73
2023-04-04T10:03:04.245Z,100155.36
2023-04-04T10:06:16.218Z,100151.48
2023-04-04T10:09:20.421Z,100156.45
2023-04-04T10:12:23.240Z,100157.44
2023-04-04T10:15:28.445Z,100157.06
2023-04-04T10:18:28.290Z,100156.95
2023-04-04T10:21:28.274Z,100154.02
2023-04-04T10:24:29.238Z,100148.67
2023-04-04T10:27:29.251Z,100152.04
2023-04-04T10:30:41.542Z,100153.12
2023-04-04T10:34:03.510Z,100150.76
2023-04-04T10:37:04.242Z,100139.50
2023-04-04T10:40:05.596Z,100135.52
2023-04-04T10:43:06.427Z,100133.09
2023-04-04T10:46:08.018Z,100132.70
2023-04-04T10:49:10.301Z,100130.23
2023-04-04T10:52:11.255Z,100132.71
2023-04-04T10:55:12.423Z,100135.80
2023-04-04T10:58:12.270Z,100141.40
2023-04-04T11:01:13.393Z,100150.06
2023-04-04T11:04:31.400Z,100147.67
2023-04-04T11:07:32.444Z,100149.66
2023-04-04T11:10:36.361Z,100147.10
2023-04-04T11:13:46.298Z,100148.87
2023-04-04T11:17:01.364Z,100145.04
2023-04-04T11:20:12.367Z,100147.42
2023-04-04T11:23:18.316Z,100141.83
2023-04-04T11:26:18.409Z,100142.27
2023-04-04T11:29:20.802Z,100146.28
2023-04-04T11:32:39.646Z,100142.42
2023-04-04T11:35:32.360Z,100147.85
2023-04-04T11:38:32.440Z,100143.14
2023-04-04T11:41:32.354Z,100144.97
2023-04-04T11:44:35.390Z,100146.30
2023-04-04T11:47:38.508Z,100148.61
2023-04-04T11:51:00.698Z,100147.86
2023-04-04T11:54:00.434Z,100146.45
2023-04-04T11:57:00.394Z,100145.56
2023-04-04T12:00:03.444Z,100145.29
2023-04-04T12:03:03.853Z,100145.63
2023-04-04T12:06:04.562Z,100146.71
2023-04-04T12:09:08.027Z,100147.94
2023-04-04T12:12:08.509Z,100146.79
2023-04-04T12:15:16.944Z,100150.47
2023-04-04T12:18:20.450Z,100148.53
2023-04-04T12:21:23.440Z,100147.44
2023-04-04T12:24:24.445Z,100145.84
2023-04-04T12:27:25.614Z,100145.50
2023-04-04T12:30:27.602Z,100142.09
2023-04-04T12:33:29.442Z,100137.09
2023-04-04T12:36:30.451Z,100136.02
2023-04-04T12:39:30.535Z,100132.52
2023-04-04T12:42:33.472Z,100127.85
2023-04-04T12:45:35.501Z,100126.69
2023-04-04T12:48:40.572Z,100129.24
2023-04-04T12:51:43.507Z,100128.80
2023-04-04T12:54:48.749Z,100128.62
2023-04-04T12:57:51.520Z,100127.40
2023-04-04T13:00:51.506Z,100122.51
2023-04-04T13:03:57.574Z,100119.94
2023-04-04T13:06:58.537Z,100116.66
2023-04-04T13:10:08.535Z,100114.84
2023-04-04T13:13:12.605Z,100117.96
2023-04-04T13:16:13.523Z,100113.63
2023-04-04T13:19:13.621Z,100112.92
2023-04-04T13:22:13.576Z,100108.76
2023-04-04T13:25:13.638Z,100107.91
2023-04-04T13:28:13.569Z,100101.70
2023-04-04T13:31:17.747Z,100097.36
2023-04-04T13:34:17.541Z,100098.58
2023-04-04T13:37:17.640Z,100097.19
2023-04-04T13:40:18.620Z,100097.28
2023-04-04T13:43:20.745Z,100091.03
2023-04-04T13:46:20.734Z,100091.42
2023-04-04T13:49:20.689Z,100091.77
2023-04-04T13:52:20.679Z,100096.29
2023-04-04T13:55:20.628Z,100089.33
2023-04-04T13:58:22.593Z,100095.52
2023-04-04T14:01:23.663Z,100092.16
2023-04-04T14:04:24.723Z,100091.87
2023-04-04T14:07:25.636Z,100087.96
2023-04-04T14:10:34.857Z,100082.42
2023-04-04T14:13:35.707Z,100080.11
2023-04-04T14:16:35.705Z,100080.76
2023-04-04T14:19:36.707Z,100080.48
2023-04-04T14:22:37.778Z,100078.13
2023-04-04T14:25:41.956Z,100082.86
2023-04-04T14:28:44.853Z,100083.14
2023-04-04T14:31:46.868Z,100081.06
2023-04-04T14:34:47.664Z,100081.36
2023-04-04T14:37:47.715Z,100077.21
2023-04-04T14:40:51.746Z,100069.89
2023-04-04T14:43:52.680Z,100075.08
2023-04-04T14:46:55.752Z,100075.51
2023-04-04T14:49:56.018Z,100076.83
2023-04-04T14:52:58.696Z,100077.22
2023-04-04T14:55:59.725Z,100073.63
2023-04-04T14:59:03.032Z,100075.81
2023-04-04T15:02:03.762Z,100073.98
2023-04-04T15:05:03.745Z,100078.70
2023-04-04T15:08:03.741Z,100077.96
2023-04-04T15:11:05.752Z,100077.73
2023-04-04T15:14:07.809Z,100082.41
2023-04-04T15:17:07.742Z,100083.27
2023-04-04T15:20:07.805Z,100086.30
2023-04-04T15:23:08.861Z,100089.16
2023-04-04T15:26:11.782Z,100086.40
2023-04-04T15:29:12.779Z,100086.73
2023-04-04T15:32:12.888Z,100086.36
2023-04-04T15:35:12.791Z,100089.72
2023-04-04T15:38:13.885Z,100086.70
2023-04-04T15:41:13.850Z,100081.02
2023-04-04T15:44:14.319Z,100084.48
2023-04-04T15:47:14.844Z,100089.38
2023-04-04T15:50:14.836Z,100083.08
2023-04-04T15:53:15.824Z,100079.60
2023-04-04T15:56:16.792Z,100080.64
2023-04-04T15:59:16.881Z,100080.52
2023-04-04T16:02:18.863Z,100075.92
2023-04-04T16:05:18.836Z,100073.64
2023-04-04T16:08:18.825Z,100071.75
2023-04-04T16:11:19.860Z,100067.90
2023-04-04T16:14:19.811Z,100063.84
2023-04-04T16:17:26.963Z,100063.36
2023-04-04T16:20:27.846Z,100060.30
2023-04-04T16:23:28.952Z,100054.21
2023-04-04T16:26:30.867Z,100051.89
2023-04-04T16:29:30.880Z,100046.77
2023-04-04T16:32:31.911Z,100048.81
2023-04-04T16:35:32.960Z,100047.41
2023-04-04T16:38:34.026Z,100049.33
2023-04-04T16:41:35.025Z,100041.86
2023-04-04T16:44:36.898Z,100040.59
2023-04-04T16:47:37.389Z,100037.33
2023-04-04T16:50:44.928Z,100037.71
2023-04-04T16:53:45.998Z,100033.66
2023-04-04T16:56:51.876Z,100030.29
2023-04-04T16:59:53.017Z,100027.04
2023-04-04T17:02:54.145Z,100023.77
2023-04-04T17:06:02.528Z,100022.33
2023-04-04T17:09:03.968Z,100022.55
2023-04-04T17:12:11.961Z,100023.52
2023-04-04T17:15:14.033Z,100025.09
2023-04-04T17:18:15.930Z,100020.56
2023-04-04T17:21:18.175Z,100014.20
2023-04-04T17:24:17.959Z,100015.13
2023-04-04T17:27:19.262Z,100010.02
2023-04-04T17:30:19.431Z,100013.91
2023-04-04T17:33:22.034Z,100017.26
2023-04-04T17:36:21.996Z,100014.81
2023-04-04T17:39:22.998Z,100011.28
2023-04-04T17:42:23.046Z,100014.09
2023-04-04T17:45:25.206Z,100011.34
2023-04-04T17:48:24.959Z,100011.37
2023-04-04T17:51:25.288Z,100016.41
2023-04-04T17:54:26.036Z,100019.50
2023-04-04T17:57:32.214Z,100023.63
2023-04-04T18:00:51.119Z,100024.22
2023-04-04T18:03:53.092Z,100026.23
2023-04-04T18:06:55.067Z,100025.84
2023-04-04T18:09:56.087Z,100022.14
2023-04-04T18:13:00.272Z,100020.30
2023-04-04T18:16:00.188Z,100014.52
2023-04-04T18:19:00.041Z,100013.90
2023-04-04T18:22:00.169Z,100009.13
2023-04-04T18:25:52.104Z,100012.86
2023-04-04T18:28:52.975Z,100006.62
2023-04-04T18:31:54.288Z,100004.43
2023-04-04T18:34:54.025Z,100003.04
2023-04-04T18:37:55.352Z,100007.17
2023-04-04T18:40:57.097Z,100008.75
2023-04-04T18:43:59.075Z,100012.77
2023-04-04T18:47:01.149Z,100014.60
2023-04-04T18:50:01.143Z,100022.02
2023-04-04T18:53:03.070Z,100027.46
2023-04-04T18:56:05.208Z,100033.80
2023-04-04T18:59:08.000Z,100033.17
2023-04-04T19:02:09.126Z,100036.40
2023-04-04T19:05:09.150Z,100037.02
2023-04-04T19:08:10.140Z,100045.25
2023-04-04T19:11:10.190Z,100044.83
2023-04-04T19:14:10.605Z,100044.42
2023-04-04T19:17:14.236Z,100041.52
2023-04-04T19:20:14.168Z,100043.05
2023-04-04T19:23:14.615Z,100031.39
2023-04-04T19:26:17.579Z,100016.86
2023-04-04T19:29:21.674Z,100011.95
2023-04-04T19:32:25.170Z,100005.96
2023-04-04T19:35:33.491Z,100002.31
2023-04-04T19:38:36.206Z,100002.89
2023-04-04T19:41:47.609Z,100000.13
2023-04-04T19:44:51.169Z,100001.85
2023-04-04T19:47:51.228Z,100002.37
2023-04-04T19:50:52.490Z,100007.40
2023-04-04T19:53:54.278Z,100015.63
2023-04-04T19:56:54.223Z,100015.23
2023-04-04T20:00:01.284Z,100020.25
2023-04-04T20:03:06.380Z,100029.65
2023-04-04T20:06:07.224Z,100036.27
2023-04-04T20:09:09.323Z,100038.76
2023-04-04T20:12:09.234Z,100045.63
2023-04-04T20:15:11.237Z,100049.55
2023-04-04T20:18:11.320Z,100051.64
2023-04-04T20:21:12.314Z,100052.35
2023-04-04T20:24:16.562Z,100050.40
2023-04-04T20:27:16.765Z,100050.02
2023-04-04T20:30:18.277Z,100049.33
2023-04-04T20:33:40.411Z,100044.58
2023-04-04T20:36:43.562Z,100036.59
2023-04-04T20:39:56.413Z,100035.06
2023-04-04T20:42:57.282Z,100028.34
2023-04-04T20:45:58.280Z,100024.72
2023-04-04T20:49:03.276Z,100023.43
2023-04-04T20:52:03.275Z,100024.41
2023-04-04T20:55:03.358Z,100017.27
2023-04-04T20:58:03.315Z,100008.35
2023-04-04T21:01:03.311Z,100005.13
2023-04-04T21:04:04.370Z,100004.68
2023-04-04T21:07:04.352Z,99997.11
2023-04-04T21:10:04.386Z,99992.02
2023-04-04T21:13:04.332Z,99983.68
2023-04-04T21:16:04.498Z,99981.79
2023-04-04T21:19:07.400Z,99985.34
2023-04-04T21:22:07.394Z,99985.89
2023-04-04T21:25:07.444Z,99989.42
2023-04-04T21:28:08.390Z,99993.19
2023-04-04T21:31:08.412Z,99984.86
2023-04-04T21:34:09.905Z,99976.25
2023-04-04T21:37:13.401Z,99980.88
2023-04-04T21:40:13.451Z,99980.02
2023-04-04T21:43:14.373Z,99979.35
2023-04-04T21:46:16.450Z,99973.48
2023-04-04T21:49:17.391Z,99968.56
2023-04-04T21:52:20.631Z,99962.34
2023-04-04T21:55:21.515Z,99959.33
2023-04-04T21:58:21.374Z,99958.05
2023-04-04T22:01:21.434Z,99950.08
2023-04-04T22:04:25.544Z,99947.08
2023-04-04T22:07:25.390Z,99943.73
2023-04-04T22:10:28.487Z,99946.64
2023-04-04T22:13:38.481Z,99948.14
2023-04-04T22:16:38.505Z,99945.88
2023-04-04T22:19:49.479Z,99946.59
2023-04-04T22:22:51.438Z,99942.41
2023-04-04T22:25:52.456Z,99947.61
2023-04-04T22:28:53.444Z,99944.98
2023-04-04T22:31:54.522Z,99951.16
2023-04-04T22:34:55.485Z,99952.38
2023-04-04T22:37:56.492Z,99953.59
2023-04-04T22:40:56.508Z,99956.27
2023-04-04T22:43:57.616Z,99952.60
2023-04-04T22:46:58.590Z,99948.97
2023-04-04T22:50:02.525Z,99948.81
2023-04-04T22:53:04.518Z,99941.90
2023-04-04T22:56:06.545Z,99940.13
2023-04-04T22:59:06.584Z,99943.58
2023-04-04T23:02:06.510Z,99937.98
2023-04-04T23:05:06.523Z,99926.80
2023-04-04T23:08:07.543Z,99913.94
2023-04-04T23:11:08.540Z,99890.29
2023-04-04T23:14:10.601Z,99887.73
2023-04-04T23:17:12.544Z,99902.17
2023-04-04T23:20:18.597Z,99903.05
2023-04-04T23:23:18.541Z,99896.27
2023-04-04T23:26:19.559Z,99894.76
2023-04-04T23:29:19.627Z,99918.95
2023-04-04T23:32:20.571Z,99936.40
2023-04-04T23:35:21.599Z,99922.67
2023-04-04T23:38:21.640Z,99893.63
2023-04-04T23:41:23.600Z,99896.42
2023-04-04T23:44:26.683Z,99912.31
2023-04-04T23:47:26.593Z,99912.35
2023-04-04T23:50:33.629Z,99899.94
2023-04-04T23:53:34.580Z,99894.44
2023-04-04T23:56:37.619Z,99904.26
2023-04-04T23:59:40.616Z,99917.67
